createdAt,value
2019-05-10T00:02:26.601Z,100180.67
2019-05-10T00:05:18.405Z,100184.17
2019-05-10T00:08:08.175Z,100181.05
2019-05-10T00:10:51.754Z,100184.11
2019-05-10T00:13:24.333Z,100181.54
2019-05-10T00:15:55.968Z,100199.94
2019-05-10T00:18:25.937Z,100199.94
2019-05-10T00:20:56.143Z,100192.90
2019-05-10T00:23:26.223Z,100195.53
2019-05-10T00:25:55.972Z,100194.21
2019-05-10T00:28:25.925Z,100195.06
2019-05-10T00:30:56.006Z,100196.38
2019-05-10T00:33:25.747Z,100204.23
2019-05-10T00:35:57.625Z,100209.47
2019-05-10T00:38:27.928Z,100210.32
2019-05-10T00:41:00.887Z,100205.00
2019-05-10T00:43:31.741Z,100208.10
2019-05-10T00:46:02.654Z,100212.42
2019-05-10T00:48:32.610Z,100208.48
2019-05-10T00:51:02.561Z,100190.25
2019-05-10T00:53:34.900Z,100211.95
2019-05-10T00:56:04.685Z,100212.77
2019-05-10T00:58:34.521Z,100213.13
2019-05-10T01:01:04.835Z,100210.03
2019-05-10T01:03:34.987Z,100213.13
2019-05-10T01:06:04.984Z,100210.94
2019-05-10T01:08:35.189Z,100210.00
2019-05-10T01:11:05.608Z,100211.62
2019-05-10T01:13:36.252Z,100204.58
2019-05-10T01:16:06.677Z,100202.86
2019-05-10T01:18:38.861Z,100209.00
2019-05-10T01:21:08.726Z,100206.37
2019-05-10T01:23:38.519Z,100202.02
2019-05-10T01:26:08.441Z,100199.80
2019-05-10T01:28:38.768Z,100195.81
2019-05-10T01:31:08.647Z,100191.40
2019-05-10T01:33:39.148Z,100192.31
2019-05-10T01:36:09.178Z,100194.53
2019-05-10T01:38:39.761Z,100191.06
2019-05-10T01:41:09.921Z,100188.80
2019-05-10T01:43:39.890Z,100191.43
2019-05-10T01:46:10.393Z,100194.03
2019-05-10T01:48:40.633Z,100196.63
2019-05-10T01:51:10.731Z,100200.98
2019-05-10T01:53:41.760Z,100193.09
2019-05-10T01:56:11.527Z,100195.21
2019-05-10T01:58:41.644Z,100207.12
2019-05-10T02:01:12.357Z,100196.66
2019-05-10T02:03:42.378Z,100206.34
2019-05-10T02:06:12.744Z,100202.83
2019-05-10T02:08:42.846Z,100193.09
2019-05-10T02:11:12.642Z,100197.09
2019-05-10T02:13:42.461Z,100168.84
2019-05-10T02:16:12.870Z,100189.67
2019-05-10T02:18:42.754Z,100194.88
2019-05-10T02:21:12.700Z,100196.66
2019-05-10T02:23:43.393Z,100192.24
2019-05-10T02:26:13.277Z,100194.94
2019-05-10T02:28:45.104Z,100194.94
2019-05-10T02:31:21.484Z,100191.03
2019-05-10T02:33:50.071Z,100187.48
2019-05-10T02:36:20.621Z,100183.55
2019-05-10T02:38:50.805Z,100189.67
2019-05-10T02:41:21.347Z,100180.91
2019-05-10T02:43:52.529Z,100181.34
2019-05-10T02:46:23.087Z,100184.02
2019-05-10T02:48:53.243Z,100186.67
2019-05-10T02:51:23.227Z,100195.88
2019-05-10T02:53:54.690Z,100197.59
2019-05-10T02:56:31.011Z,100194.03
2019-05-10T02:58:58.626Z,100194.00
2019-05-10T03:01:34.472Z,100192.20
2019-05-10T03:04:04.976Z,100201.86
2019-05-10T03:06:36.602Z,100195.69
2019-05-10T03:09:09.066Z,100208.36
2019-05-10T03:11:47.735Z,100202.36
2019-05-10T03:14:20.348Z,100206.34
2019-05-10T03:16:53.819Z,100200.63
2019-05-10T03:19:24.245Z,100200.20
2019-05-10T03:22:09.305Z,100201.11
2019-05-10T03:24:39.221Z,100208.12
2019-05-10T03:27:09.510Z,100196.31
2019-05-10T03:29:39.565Z,100189.40
2019-05-10T03:32:10.612Z,100196.84
2019-05-10T03:34:42.577Z,100209.16
2019-05-10T03:37:12.443Z,100201.73
2019-05-10T03:39:42.622Z,100204.77
2019-05-10T03:42:12.609Z,100210.03
2019-05-10T03:44:44.323Z,100211.78
2019-05-10T03:47:14.535Z,100217.42
2019-05-10T03:49:47.597Z,100220.48
2019-05-10T03:52:17.818Z,100218.67
2019-05-10T03:54:48.723Z,100237.02
2019-05-10T03:57:19.669Z,100229.12
2019-05-10T03:59:49.732Z,100229.98
2019-05-10T04:02:20.006Z,100228.22
2019-05-10T04:04:51.469Z,100227.34
2019-05-10T04:07:21.196Z,100229.56
2019-05-10T04:09:52.335Z,100234.42
2019-05-10T04:12:23.489Z,100222.99
2019-05-10T04:14:53.609Z,100203.42
2019-05-10T04:17:23.560Z,100218.14
2019-05-10T04:19:54.208Z,100222.14
2019-05-10T04:22:24.133Z,100219.61
2019-05-10T04:24:53.964Z,100219.20
2019-05-10T04:27:32.207Z,100219.64
2019-05-10T04:29:56.063Z,100219.64
2019-05-10T04:32:26.053Z,100217.86
2019-05-10T04:34:55.627Z,100218.70
2019-05-10T04:37:26.494Z,100225.22
2019-05-10T04:39:56.429Z,100225.62
2019-05-10T04:42:26.147Z,100224.31
2019-05-10T04:44:55.961Z,100227.34
2019-05-10T04:47:26.403Z,100237.45
2019-05-10T04:49:56.014Z,100240.99
2019-05-10T04:52:25.881Z,100245.75
2019-05-10T04:54:57.769Z,100239.59
2019-05-10T04:57:28.596Z,100220.92
2019-05-10T04:59:58.233Z,100243.87
2019-05-10T05:02:30.995Z,100249.20
2019-05-10T05:05:01.922Z,100249.11
2019-05-10T05:07:31.571Z,100241.22
2019-05-10T05:10:01.830Z,100253.36
2019-05-10T05:12:31.676Z,100248.84
2019-05-10T05:15:01.757Z,100236.94
2019-05-10T05:17:33.294Z,100238.95
2019-05-10T05:20:02.952Z,100237.02
2019-05-10T05:22:33.102Z,100231.63
2019-05-10T05:25:03.907Z,100229.32
2019-05-10T05:27:33.567Z,100227.97
2019-05-10T05:30:03.487Z,100229.64
2019-05-10T05:32:38.680Z,100231.28
2019-05-10T05:35:05.944Z,100117.75
2019-05-10T05:37:38.167Z,100229.80
2019-05-10T05:40:09.828Z,100232.83
2019-05-10T05:42:39.995Z,100231.02
2019-05-10T05:45:10.273Z,100230.89
2019-05-10T05:47:42.308Z,100231.30
2019-05-10T05:50:11.768Z,100208.59
2019-05-10T05:52:41.708Z,100227.95
2019-05-10T05:55:12.371Z,100230.50
2019-05-10T05:57:42.434Z,100227.72
2019-05-10T06:00:12.588Z,100229.44
2019-05-10T06:02:44.973Z,100232.07
2019-05-10T06:05:32.209Z,100227.68
2019-05-10T06:07:52.329Z,100227.63
2019-05-10T06:10:21.704Z,100225.83
2019-05-10T06:12:52.950Z,100222.45
2019-05-10T06:15:29.185Z,100224.31
2019-05-10T06:18:03.653Z,100225.09
2019-05-10T06:20:30.474Z,100223.30
2019-05-10T06:23:07.551Z,100221.34
2019-05-10T06:25:39.653Z,100221.59
2019-05-10T06:28:03.444Z,100216.80
2019-05-10T06:30:34.848Z,100214.66
2019-05-10T06:33:12.714Z,100221.98
2019-05-10T06:35:40.792Z,100214.80
2019-05-10T06:38:11.933Z,100216.55
2019-05-10T06:40:47.203Z,100215.28
2019-05-10T06:43:15.550Z,100222.66
2019-05-10T06:45:46.764Z,100217.56
2019-05-10T06:48:25.843Z,100219.52
2019-05-10T06:50:49.029Z,100218.41
2019-05-10T06:53:19.268Z,100219.97
2019-05-10T06:55:49.249Z,100217.60
2019-05-10T06:58:20.495Z,100226.66
2019-05-10T07:00:50.553Z,100221.32
2019-05-10T07:03:20.246Z,100220.38
2019-05-10T07:05:50.111Z,100222.45
2019-05-10T07:08:20.518Z,100209.52
2019-05-10T07:10:50.314Z,100206.87
2019-05-10T07:13:19.934Z,100207.48
2019-05-10T07:15:50.003Z,100197.97
2019-05-10T07:18:22.668Z,100201.62
2019-05-10T07:21:00.967Z,100200.06
2019-05-10T07:23:30.171Z,100208.10
2019-05-10T07:26:00.314Z,100203.46
2019-05-10T07:28:29.913Z,100203.44
2019-05-10T07:30:59.498Z,100203.56
2019-05-10T07:33:32.133Z,100205.28
2019-05-10T07:36:01.106Z,100204.70
2019-05-10T07:38:32.947Z,100212.44
2019-05-10T07:41:02.902Z,100209.95
2019-05-10T07:43:32.794Z,100201.75
2019-05-10T07:46:06.475Z,100199.72
2019-05-10T07:48:34.960Z,100203.95
2019-05-10T07:51:04.621Z,100198.47
2019-05-10T07:53:34.150Z,100188.45
2019-05-10T07:56:06.071Z,100192.92
2019-05-10T07:58:38.229Z,100198.07
2019-05-10T08:01:07.157Z,100207.95
2019-05-10T08:03:44.273Z,100206.63
2019-05-10T08:06:15.058Z,100202.64
2019-05-10T08:08:43.337Z,100206.63
2019-05-10T08:11:13.098Z,100198.36
2019-05-10T08:13:42.818Z,100200.74
2019-05-10T08:16:19.568Z,100198.87
2019-05-10T08:18:44.216Z,100196.47
2019-05-10T08:21:23.912Z,100204.95
2019-05-10T08:23:48.144Z,100195.66
2019-05-10T08:26:22.447Z,100195.14
2019-05-10T08:28:52.368Z,100198.34
2019-05-10T08:31:22.203Z,100193.92
2019-05-10T08:33:58.581Z,100194.70
2019-05-10T08:36:24.521Z,100194.41
2019-05-10T08:39:05.100Z,100195.20
2019-05-10T08:41:25.832Z,100196.53
2019-05-10T08:43:55.654Z,100202.96
2019-05-10T08:46:37.366Z,100204.71
2019-05-10T08:48:57.789Z,100205.98
2019-05-10T08:51:27.377Z,100210.63
2019-05-10T08:53:58.363Z,100218.70
2019-05-10T08:56:28.479Z,100221.47
2019-05-10T08:58:58.063Z,100222.91
2019-05-10T09:01:30.581Z,100224.94
2019-05-10T09:04:06.439Z,100225.74
2019-05-10T09:06:32.756Z,100226.88
2019-05-10T09:09:05.948Z,100232.97
2019-05-10T09:11:34.078Z,100228.69
2019-05-10T09:14:04.447Z,100232.54
2019-05-10T09:16:39.314Z,100235.36
2019-05-10T09:19:06.333Z,100234.84
2019-05-10T09:21:41.300Z,100135.30
2019-05-10T09:24:08.616Z,100244.13
2019-05-10T09:26:41.699Z,100252.35
2019-05-10T09:29:12.163Z,100253.28
2019-05-10T09:31:48.597Z,100263.84
2019-05-10T09:34:13.892Z,100270.17
2019-05-10T09:36:47.130Z,100268.53
2019-05-10T09:39:21.635Z,100273.06
2019-05-10T09:41:49.066Z,100276.03
2019-05-10T09:44:18.940Z,100285.63
2019-05-10T09:46:48.775Z,100284.23
2019-05-10T09:49:19.153Z,100293.98
2019-05-10T09:51:48.901Z,100295.73
2019-05-10T09:54:23.248Z,100291.73
2019-05-10T09:56:52.273Z,100295.50
2019-05-10T09:59:22.170Z,100296.63
2019-05-10T10:01:51.962Z,100295.50
2019-05-10T10:04:21.777Z,100294.31
2019-05-10T10:06:53.283Z,100292.03
2019-05-10T10:09:33.758Z,100293.93
2019-05-10T10:12:01.725Z,100292.84
2019-05-10T10:14:37.786Z,100289.77
2019-05-10T10:17:03.289Z,100293.05
2019-05-10T10:19:34.303Z,100288.39
2019-05-10T10:22:05.687Z,100286.69
2019-05-10T10:24:40.230Z,100285.36
2019-05-10T10:27:07.917Z,100281.02
2019-05-10T10:29:38.761Z,100280.97
2019-05-10T10:32:09.941Z,100278.23
2019-05-10T10:34:43.056Z,100277.17
2019-05-10T10:37:14.676Z,100274.34
2019-05-10T10:39:43.935Z,100274.20
2019-05-10T10:42:13.832Z,100273.55
2019-05-10T10:44:43.423Z,100286.67
2019-05-10T10:47:12.935Z,100280.19
2019-05-10T10:49:42.954Z,100275.61
2019-05-10T10:52:13.541Z,100277.48
2019-05-10T10:54:43.284Z,100274.63
2019-05-10T10:57:13.206Z,100274.84
2019-05-10T10:59:47.378Z,100276.20
2019-05-10T11:02:31.467Z,100281.11
2019-05-10T11:04:49.010Z,100285.28
2019-05-10T11:07:19.653Z,100291.45
2019-05-10T11:09:53.694Z,100288.59
2019-05-10T11:12:24.013Z,100288.13
2019-05-10T11:14:52.876Z,100291.61
2019-05-10T11:17:23.701Z,100288.96
2019-05-10T11:19:53.709Z,100286.32
2019-05-10T11:22:27.401Z,100285.55
2019-05-10T11:25:02.970Z,100285.79
2019-05-10T11:27:28.042Z,100291.54
2019-05-10T11:30:00.703Z,100280.30
2019-05-10T11:32:31.469Z,100284.77
2019-05-10T11:35:05.105Z,100283.33
2019-05-10T11:37:36.372Z,100284.08
2019-05-10T11:40:06.489Z,100283.58
2019-05-10T11:42:43.809Z,100287.16
2019-05-10T11:45:11.121Z,100284.96
2019-05-10T11:47:41.073Z,100281.39
2019-05-10T11:50:26.579Z,100284.76
2019-05-10T11:52:43.325Z,100273.17
2019-05-10T11:55:13.687Z,100282.19
2019-05-10T11:57:44.286Z,100281.56
2019-05-10T12:00:28.016Z,100279.59
2019-05-10T12:03:03.350Z,100279.99
2019-05-10T12:07:54.707Z,100281.26
2019-05-10T12:10:25.859Z,100284.22
2019-05-10T12:13:08.725Z,100286.92
2019-05-10T12:15:31.440Z,100292.73
2019-05-10T12:18:04.549Z,100292.80
2019-05-10T12:20:51.045Z,100292.20
2019-05-10T12:23:05.672Z,100288.92
2019-05-10T12:25:51.261Z,100294.28
2019-05-10T12:26:30.936Z,100284.57
2019-05-10T12:28:08.823Z,100297.59
2019-05-10T12:30:40.914Z,100301.58
2019-05-10T12:33:24.251Z,100305.88
2019-05-10T12:35:50.967Z,100308.16
2019-05-10T12:38:29.686Z,100304.41
2019-05-10T12:40:55.600Z,100311.28
2019-05-10T12:43:30.810Z,100305.67
2019-05-10T12:46:00.588Z,100311.61
2019-05-10T12:48:31.705Z,100312.44
2019-05-10T12:51:07.739Z,100310.59
2019-05-10T12:53:36.628Z,100317.47
2019-05-10T12:56:05.167Z,100318.39
2019-05-10T12:58:35.009Z,100311.20
2019-05-10T13:01:04.732Z,100324.45
2019-05-10T13:03:34.747Z,100325.21
2019-05-10T13:06:04.861Z,100326.79
2019-05-10T13:08:34.740Z,100334.90
2019-05-10T13:11:05.082Z,100333.45
2019-05-10T13:13:35.954Z,100339.23
2019-05-10T13:16:10.017Z,100331.99
2019-05-10T13:18:50.590Z,100337.05
2019-05-10T13:21:20.673Z,100332.65
2019-05-10T13:23:45.719Z,100333.14
2019-05-10T13:26:15.347Z,100336.72
2019-05-10T13:28:45.729Z,100342.57
2019-05-10T13:31:15.410Z,100346.91
2019-05-10T13:33:45.368Z,100344.22
2019-05-10T13:36:15.215Z,100342.47
2019-05-10T13:38:49.433Z,100342.52
2019-05-10T13:41:24.463Z,100346.89
2019-05-10T13:43:50.946Z,100345.75
2019-05-10T13:46:20.548Z,100342.36
2019-05-10T13:48:51.197Z,100344.83
2019-05-10T13:51:21.635Z,100346.25
2019-05-10T13:53:53.793Z,100343.84
2019-05-10T13:56:24.827Z,100352.80
2019-05-10T13:58:55.289Z,100352.26
2019-05-10T14:01:27.500Z,100354.42
2019-05-10T14:04:01.083Z,100353.53
2019-05-10T14:06:29.074Z,100359.30
2019-05-10T14:08:59.877Z,100361.63
2019-05-10T14:11:33.941Z,100364.66
2019-05-10T14:14:01.660Z,100372.29
2019-05-10T14:16:31.858Z,100366.85
2019-05-10T14:19:02.396Z,100379.16
2019-05-10T14:21:33.334Z,100378.89
2019-05-10T14:24:08.992Z,100386.47
2019-05-10T14:26:38.201Z,100383.63
2019-05-10T14:29:11.075Z,100383.91
2019-05-10T14:31:39.557Z,100384.30
2019-05-10T14:34:16.453Z,100387.66
2019-05-10T14:36:43.817Z,100387.94
2019-05-10T14:39:13.563Z,100386.80
2019-05-10T14:41:45.304Z,100389.77
2019-05-10T14:44:15.669Z,100387.53
2019-05-10T14:46:45.580Z,100389.16
2019-05-10T14:49:17.486Z,100391.72
2019-05-10T14:51:58.341Z,100387.56
2019-05-10T14:54:19.885Z,100397.17
2019-05-10T14:56:49.793Z,100395.58
2019-05-10T14:59:19.840Z,100401.81
2019-05-10T15:01:50.002Z,100403.24
2019-05-10T15:04:43.896Z,100406.83
2019-05-10T15:06:53.105Z,100403.58
2019-05-10T15:09:24.227Z,100401.83
2019-05-10T15:11:55.511Z,100394.33
2019-05-10T15:14:26.435Z,100396.08
2019-05-10T15:16:56.151Z,100391.20
2019-05-10T15:19:40.563Z,100402.09
2019-05-10T15:22:18.360Z,100402.36
2019-05-10T15:24:44.798Z,100397.54
2019-05-10T15:27:21.490Z,100404.77
2019-05-10T15:29:47.515Z,100407.80
2019-05-10T15:32:17.565Z,100417.20
2019-05-10T15:35:04.301Z,100412.36
2019-05-10T15:37:19.726Z,100411.13
2019-05-10T15:39:53.504Z,100412.33
2019-05-10T15:42:24.669Z,100420.31
2019-05-10T15:44:54.601Z,100424.05
2019-05-10T15:47:24.790Z,100419.25
2019-05-10T15:50:00.128Z,100423.41
2019-05-10T15:52:28.077Z,100421.06
2019-05-10T15:54:58.263Z,100427.77
2019-05-10T15:57:32.275Z,100427.66
2019-05-10T16:00:00.910Z,100429.72
2019-05-10T16:02:30.591Z,100426.05
2019-05-10T16:05:00.233Z,100432.27
2019-05-10T16:07:32.098Z,100435.00
2019-05-10T16:10:04.528Z,100436.13
2019-05-10T16:12:37.768Z,100434.67
2019-05-10T16:15:13.678Z,100443.91
2019-05-10T16:17:39.749Z,100440.20
2019-05-10T16:20:10.655Z,100449.00
2019-05-10T16:22:42.138Z,100449.93
2019-05-10T16:25:11.824Z,100450.85
2019-05-10T16:27:44.788Z,100450.85
2019-05-10T16:30:17.730Z,100451.98
2019-05-10T16:32:49.103Z,100462.36
2019-05-10T16:35:22.068Z,100463.97
2019-05-10T16:37:53.329Z,100459.76
2019-05-10T16:40:24.032Z,100457.27
2019-05-10T16:42:54.272Z,100464.41
2019-05-10T16:45:28.775Z,100469.86
2019-05-10T16:47:59.280Z,100476.11
2019-05-10T16:50:31.716Z,100480.69
2019-05-10T16:53:08.231Z,100475.89
2019-05-10T16:55:41.053Z,100476.68
2019-05-10T16:58:22.438Z,100474.34
2019-05-10T17:00:52.528Z,100478.45
2019-05-10T17:03:23.054Z,100492.43
2019-05-10T17:05:58.313Z,100494.11
2019-05-10T17:08:24.904Z,100499.52
2019-05-10T17:10:55.031Z,100504.66
2019-05-10T17:13:25.133Z,100508.75
2019-05-10T17:15:56.515Z,100516.00
2019-05-10T17:18:26.340Z,100515.08
2019-05-10T17:20:56.019Z,100519.08
2019-05-10T17:23:26.307Z,100515.03
2019-05-10T17:25:55.955Z,100521.03
2019-05-10T17:28:29.554Z,100522.50
2019-05-10T17:30:59.766Z,100528.70
2019-05-10T17:33:30.513Z,100519.86
2019-05-10T17:36:07.948Z,100527.78
2019-05-10T17:38:32.794Z,100525.18
2019-05-10T17:41:02.417Z,100525.22
2019-05-10T17:43:32.115Z,100528.70
2019-05-10T17:46:02.642Z,100522.62
2019-05-10T17:48:32.567Z,100524.05
2019-05-10T17:51:02.325Z,100529.06
2019-05-10T17:53:32.207Z,100531.70
2019-05-10T17:56:03.437Z,100535.98
2019-05-10T17:58:34.935Z,100544.03
2019-05-10T18:01:04.769Z,100545.89
2019-05-10T18:03:34.944Z,100550.42
2019-05-10T18:06:05.395Z,100551.83
2019-05-10T18:08:38.382Z,100556.98
2019-05-10T18:11:09.439Z,100556.73
2019-05-10T18:13:40.859Z,100563.81
2019-05-10T18:16:13.547Z,100554.91
2019-05-10T18:18:47.061Z,100562.09
2019-05-10T18:21:22.197Z,100561.50
2019-05-10T18:23:52.562Z,100568.14
2019-05-10T18:26:22.403Z,100577.81
2019-05-10T18:28:52.888Z,100570.31
2019-05-10T18:31:22.984Z,100580.53
2019-05-10T18:33:54.549Z,100570.38
2019-05-10T18:36:24.832Z,100579.09
2019-05-10T18:38:56.127Z,100578.63
2019-05-10T18:41:26.210Z,100584.84
2019-05-10T18:43:56.133Z,100580.97
2019-05-10T18:46:27.849Z,100591.48
2019-05-10T18:48:57.971Z,100585.80
2019-05-10T18:51:28.174Z,100585.91
2019-05-10T18:54:01.073Z,100592.16
2019-05-10T18:56:33.231Z,100590.30
2019-05-10T18:59:07.513Z,100599.94
2019-05-10T19:01:40.535Z,100598.20
2019-05-10T19:04:14.203Z,100600.02
2019-05-10T19:06:44.287Z,100599.05
2019-05-10T19:09:13.469Z,100607.41
2019-05-10T19:11:44.338Z,100607.84
2019-05-10T19:14:14.715Z,100607.84
2019-05-10T19:16:46.730Z,100607.42
2019-05-10T19:19:19.624Z,100611.33
2019-05-10T19:21:52.911Z,100614.44
2019-05-10T19:24:24.241Z,100611.43
2019-05-10T19:26:54.771Z,100615.77
2019-05-10T19:29:27.552Z,100605.21
2019-05-10T19:32:03.581Z,100607.09
2019-05-10T19:34:33.371Z,100618.53
2019-05-10T19:37:03.365Z,100618.95
2019-05-10T19:39:35.038Z,100625.53
2019-05-10T19:42:07.708Z,100629.14
2019-05-10T19:44:40.530Z,100631.06
2019-05-10T19:47:17.695Z,100630.22
2019-05-10T19:49:51.577Z,100624.03
2019-05-10T19:52:27.805Z,100627.94
2019-05-10T19:54:59.210Z,100626.66
2019-05-10T19:57:29.351Z,100630.75
2019-05-10T20:00:02.043Z,100625.95
2019-05-10T20:02:34.722Z,100642.59
2019-05-10T20:05:06.427Z,100646.05
2019-05-10T20:07:45.973Z,100630.59
2019-05-10T20:10:14.113Z,100631.00
2019-05-10T20:12:43.769Z,100633.73
2019-05-10T20:15:18.336Z,100631.08
2019-05-10T20:17:53.521Z,100638.88
2019-05-10T20:20:25.287Z,100635.47
2019-05-10T20:22:56.163Z,100646.95
2019-05-10T20:25:32.052Z,100645.64
2019-05-10T20:28:10.669Z,100654.81
2019-05-10T20:30:42.054Z,100648.64
2019-05-10T20:33:15.307Z,100651.66
2019-05-10T20:35:46.070Z,100659.20
2019-05-10T20:38:16.630Z,100662.34
2019-05-10T20:40:52.790Z,100664.18
2019-05-10T20:43:24.921Z,100670.77
2019-05-10T20:45:55.136Z,100674.23
2019-05-10T20:48:25.272Z,100665.89
2019-05-10T20:50:55.644Z,100676.45
2019-05-10T20:53:27.819Z,100672.96
2019-05-10T20:56:03.790Z,100669.94
2019-05-10T20:58:34.106Z,100671.23
2019-05-10T21:01:04.080Z,100675.66
2019-05-10T21:03:37.023Z,100672.58
2019-05-10T21:06:06.626Z,100667.77
2019-05-10T21:08:37.507Z,100670.79
2019-05-10T21:11:07.831Z,100674.35
2019-05-10T21:13:38.330Z,100678.32
2019-05-10T21:16:08.269Z,100677.91
2019-05-10T21:18:38.061Z,100680.06
2019-05-10T21:21:10.178Z,100688.42
2019-05-10T21:23:40.186Z,100683.19
2019-05-10T21:26:10.201Z,100687.59
2019-05-10T21:28:40.148Z,100683.17
2019-05-10T21:31:09.922Z,100680.52
2019-05-10T21:33:42.791Z,100680.16
2019-05-10T21:36:12.439Z,100688.13
2019-05-10T21:38:42.504Z,100687.20
2019-05-10T21:41:14.222Z,100683.66
2019-05-10T21:43:47.427Z,100689.38
2019-05-10T21:46:17.650Z,100688.91
2019-05-10T21:48:49.305Z,100683.25
2019-05-10T21:51:19.799Z,100682.78
2019-05-10T21:53:51.926Z,100688.13
2019-05-10T21:56:22.294Z,100686.80
2019-05-10T21:58:51.929Z,100685.88
2019-05-10T22:01:25.650Z,100688.52
2019-05-10T22:03:57.581Z,100684.11
2019-05-10T22:06:27.703Z,100689.89
2019-05-10T22:08:57.367Z,100690.31
2019-05-10T22:11:32.204Z,100700.42
2019-05-10T22:14:01.983Z,100699.12
2019-05-10T22:16:32.323Z,100701.33
2019-05-10T22:19:04.175Z,100701.79
2019-05-10T22:21:34.101Z,100696.96
2019-05-10T22:24:06.403Z,100696.48
2019-05-10T22:26:36.072Z,100696.94
2019-05-10T22:29:05.748Z,100698.20
2019-05-10T22:31:36.949Z,100704.83
2019-05-10T22:34:06.849Z,100707.05
2019-05-10T22:36:36.741Z,100709.69
2019-05-10T22:39:08.013Z,100607.80
2019-05-10T22:41:42.866Z,100718.42
2019-05-10T22:44:13.050Z,100714.08
2019-05-10T22:46:43.304Z,100710.59
2019-05-10T22:49:13.303Z,100717.12
2019-05-10T22:51:43.350Z,100720.17
2019-05-10T22:54:12.959Z,100713.17
2019-05-10T22:56:42.790Z,100720.20
2019-05-10T22:59:12.735Z,100721.97
2019-05-10T23:01:44.756Z,100599.53
2019-05-10T23:04:17.582Z,100732.08
2019-05-10T23:06:50.301Z,100734.30
2019-05-10T23:09:24.755Z,100730.77
2019-05-10T23:11:52.270Z,100729.45
2019-05-10T23:14:24.827Z,100731.66
2019-05-10T23:16:56.912Z,100732.48
2019-05-10T23:19:26.662Z,100727.27
2019-05-10T23:21:56.423Z,100729.00
2019-05-10T23:24:41.205Z,100724.19
2019-05-10T23:27:11.360Z,100724.19
2019-05-10T23:29:41.063Z,100730.80
2019-05-10T23:32:11.106Z,100734.25
2019-05-10T23:34:42.446Z,100735.16
2019-05-10T23:37:13.054Z,100735.14
2019-05-10T23:39:42.844Z,100734.29
2019-05-10T23:42:13.405Z,100733.41
2019-05-10T23:44:43.083Z,100738.67
2019-05-10T23:47:12.749Z,100734.75
2019-05-10T23:49:42.979Z,100734.31
2019-05-10T23:52:12.719Z,100737.80
2019-05-10T23:54:42.816Z,100744.81
2019-05-10T23:57:23.133Z,100736.06
2019-05-10T23:59:52.792Z,100747.88
